• Join FlightAware (Why Join?)
  • Login
  • US Flag 
11:58PM EDT


 

Airport Tracker/Info


-or-


 

Live Flight TrackerFlight Track Log ✈ SWA508 ✈ 24-Apr-2013 ✈ KPIT - KMDW

Flight Track Log - Related Links

Times and Time Zones

All times are in EDT time to prevent confusion due to time zone crossing. See the SWA508 flight status page for this flight to view local times or setup timezone preferences in your user account.

Time Position Orientation Groundspeed Altitude Reporting Facility
EDT Latitude Longitude Course Direction KTS MPH feet Rate Location/Type
11:01AM 40.5278 -80.4083 289° West 233 268 7,200  Level Cleveland Center
11:02AM 40.5486 -80.4983 287° West 233 268 10,600 2,700 Climbing Cleveland Center
11:03AM 40.5694 -80.6022 285° West 263 303 12,700 2,460 Climbing Cleveland Center
11:04AM 40.5967 -80.7225 287° West 313 360 15,600 2,940 Climbing Cleveland Center
11:05AM 40.6201 -80.8638 288° West  Level FlightAware Approximate
11:05AM 40.6233 -80.8483 286° West 338 389 18,600  Level Cleveland Center
11:06AM 40.6503 -80.9772 285° West 355 409 21,700 2,700 Climbing Cleveland Center
11:07AM 40.6747 -81.1142 283° West 375 432 24,100 2,040 Climbing Cleveland Center
11:08AM 40.6989 -81.2375 285° West 375 432 25,800 1,980 Climbing Cleveland Center
11:09AM 40.7272 -81.3750 285° West 382 440 28,100 2,100 Climbing Cleveland Center
11:10AM 40.7639 -81.5069 290° West 392 451 30,000 900 Climbing Cleveland Center
11:11AM 40.8044 -81.6364 293° West 387 445 30,000  Level Cleveland Center
11:12AM 40.8508 -81.7800 293° West 387 445 30,100 960 Climbing Cleveland Center
11:13AM 40.8911 -81.9097 292° West 387 445 32,000 900 Climbing Cleveland Center
11:14AM 40.9333 -82.0369 294° West 387 445 32,000  Level Cleveland Center
11:15AM 40.9733 -82.1644 293° West 376 433 32,000  Level Cleveland Center
11:16AM 40.9986 -82.2917 285° West 369 425 32,000  Level Cleveland Center
11:17AM 41.0175 -82.4214 281° West 354 407 32,000  Level Cleveland Center
11:18AM 41.0381 -82.5569 281° West 359 413 32,000  Level Cleveland Center
11:19AM 41.0569 -82.6731 282° West 359 413 32,000  Level Cleveland Center
11:20AM 41.0753 -82.8006 281° West 359 413 32,000  Level Cleveland Center
11:21AM 41.0978 -82.9333 283° West 359 413 32,000  Level Cleveland Center
11:22AM 41.1181 -83.0639 282° West 359 413 32,000  Level Cleveland Center
11:23AM 41.1356 -83.2078 279° West 359 413 32,000  Level Cleveland Center
11:24AM 41.1553 -83.3383 281° West 359 413 32,000  Level Cleveland Center
11:25AM 41.1750 -83.4714 281° West 359 413 32,000  Level Cleveland Center
11:26AM 41.1947 -83.6022 281° West 359 413 32,000  Level Cleveland Center
11:27AM 41.2161 -83.7356 282° West 365 420 32,000  Level Cleveland Center
11:28AM 41.2353 -83.8692 281° West 370 426 32,000 -540 Level Cleveland Center
11:29AM 41.2547 -83.9889 282° West 375 432 31,000 -720 Descending Cleveland Center
11:31AM 41.2919 -84.2528 281° West 363 418 30,000 -360 Descending Chicago Center
11:32AM 41.3100 -84.3867 280° West 367 422 30,000  Level Chicago Center
11:33AM 41.3289 -84.5172 281° West 362 417 30,000  Level Chicago Center
11:34AM 41.3442 -84.6394 279° West 339 390 30,000  Level Chicago Center
11:35AM 41.3642 -84.7861 280° West 337 388 30,000 -300 Level Chicago Center
11:36AM 41.3808 -84.9089 280° West 338 389 29,500 -780 Descending Chicago Center
11:37AM 41.3975 -85.0306 280° West 335 386 28,500 -1,020 Descending Chicago Center
11:38AM 41.4125 -85.1467 280° West 321 369 27,500 -1,020 Descending Chicago Center
11:39AM 41.4269 -85.2586 280° West 309 356 26,500 -960 Descending Chicago Center
11:40AM 41.4417 -85.3722 280° West 308 354 25,600 -960 Descending Chicago Center
11:41AM 41.4572 -85.4894 280° West 314 361 24,600 -1,080 Descending Chicago Center
11:42AM 41.4717 -85.6133 279° West 305 351 23,400 -1,260 Descending Chicago Center
11:43AM 41.4775 -85.7111 275° West 295 339 22,000 -1,740 Descending Chicago Center
11:44AM 41.4858 -85.8356 275° West 279 321 19,900 -1,860 Descending Chicago Center
11:45AM 41.4933 -85.9400 276° West 281 323 18,200 -1,740 Descending Chicago Center
11:46AM 41.5000 -86.0450 275° West 283 326 16,400 -1,680 Descending Chicago Center
11:47AM 41.5069 -86.1461 275° West 276 318 14,800 -1,620 Descending Chicago Center
11:48AM 41.5131 -86.2503 275° West 280 322 13,100 -1,740 Descending Chicago Center
11:49AM 41.5203 -86.3583 275° West 289 333 11,300 -1,500 Descending Chicago Center
11:50AM 41.5217 -86.4839 271° West 282 325 10,000 -720 Descending Chicago Center
11:51AM 41.5219 -86.5883 270° West 282 325 9,900 -60 Descending Chicago Center
11:52AM 41.5203 -86.6928 269° West 282 325 9,900  Level Chicago Center
11:53AM 41.5197 -86.7814 270° West 259 298 9,900 -180 Level Chicago Center
11:54AM 41.5186 -86.8936 269° West 253 291 9,600 -960 Descending Chicago Center
11:55AM 41.5186 -86.9861 270° West 250 288 8,000 -1,380 Descending Chicago Center
11:56AM 41.5325 -87.0778 281° West 253 291 6,800 -1,020 Descending Chicago Center
11:57AM 41.5531 -87.1653 287° West 251 289 6,000 -420 Descending Chicago Center
11:58AM 41.5708 -87.2489 286° West 241 277 6,000  Level Chicago Center
11:59AM 41.5833 -87.3333 281° West 239 275 6,000  Level Chicago TRACON
12:00PM 41.6000 -87.4333 283° West 235 270 6,000 -720 Level Chicago TRACON
12:01PM 41.6333 -87.5167 298° West 238 274 4,600 -1,320 Descending Chicago TRACON
12:02PM 41.6667 -87.5833 304° West 234 269 3,400 -840 Descending Chicago TRACON
12:03PM 41.7000 -87.6333 312° West 201 231 3,000 -720 Descending Chicago TRACON
12:04PM 41.7333 -87.6833 312° West 152 175 1,900 -900 Descending Chicago TRACON
12:05PM 41.7667 -87.7167 323° Northwest 123 142 1,300 -720 Descending Chicago TRACON
12:08PM 41.7833 -87.7500 334° Northwest  Level FlightAware Approximate